Time;durP1;ratioP1;P1;durP2;ratioP2;P2;SDS_P1;SDS_P2;PMS_P1;PMS_P2;Temp;Humidity;BMP_temperature;BMP_pressure;BME280_temperature;BME280_humidity;BME280_pressure;Samples;Min_cycle;Max_cycle;Signal;HPM_P1;HPM_P2
2021/07/15 00:02:14;;;;;;;18.38;12.68;;;692.10;2201.60;;;;;;5016486;28;20367;-83
2021/07/15 00:04:41;;;;;;;21.38;13.38;;;691.90;2201.60;;;;;;5016259;28;20346;-83
2021/07/15 00:07:07;;;;;;;16.80;12.27;;;692.00;2201.60;;;;;;5016598;28;20152;-82
2021/07/15 00:09:34;;;;;;;17.75;12.43;;;692.10;2201.60;;;;;;5016415;28;20347;-82
2021/07/15 00:12:00;;;;;;;19.92;12.43;;;691.70;2201.60;;;;;;5034036;28;20104;-82
2021/07/15 00:14:26;;;;;;;25.27;12.85;;;691.90;2201.60;;;;;;5016582;28;20025;-83
2021/07/15 00:16:54;;;;;;;18.30;11.40;;;691.90;2201.60;;;;;;5016335;28;20472;-81
2021/07/15 00:19:25;;;;;;;19.42;11.43;;;691.80;2176.00;;;;;;5016347;28;20032;-82
2021/07/15 00:21:52;;;;;;;17.30;11.43;;;691.80;2201.60;;;;;;5016523;28;20175;-82
2021/07/15 00:24:18;;;;;;;20.35;11.52;;;691.80;2201.60;;;;;;5016270;28;20029;-83
2021/07/15 00:26:45;;;;;;;16.25;11.85;;;691.80;2201.60;;;;;;5016181;28;20428;-82
2021/07/15 00:29:11;;;;;;;18.63;12.07;;;691.80;2201.60;;;;;;5015597;28;20500;-84
2021/07/15 00:31:37;;;;;;;17.65;12.15;;;691.60;2227.20;;;;;;5015959;28;20095;-82
2021/07/15 00:34:03;;;;;;;18.20;12.00;;;691.40;2227.20;;;;;;5016254;28;20022;-82
2021/07/15 00:36:29;;;;;;;17.58;12.07;;;691.40;2252.80;;;;;;5015936;28;20076;-82
2021/07/15 00:38:55;;;;;;;14.23;11.18;;;691.50;2227.20;;;;;;5016013;28;20021;-84
2021/07/15 00:41:21;;;;;;;16.40;11.40;;;691.40;2252.80;;;;;;5016525;28;20373;-81
2021/07/15 00:43:47;;;;;;;15.30;10.43;;;691.20;2278.40;;;;;;5017694;28;20025;-83
2021/07/15 00:46:13;;;;;;;18.27;10.57;;;666.50;2278.40;;;;;;5018344;28;20018;-83
2021/07/15 00:48:39;;;;;;;16.35;11.05;;;691.20;2252.80;;;;;;5021094;28;20025;-82
2021/07/15 00:51:06;;;;;;;20.92;12.10;;;691.20;2278.40;;;;;;5020852;28;20056;-82
2021/07/15 00:53:32;;;;;;;13.77;10.95;;;691.20;2252.80;;;;;;5019028;28;20115;-81
2021/07/15 00:55:58;;;;;;;18.38;11.57;;;691.40;2278.40;;;;;;5020006;28;20025;-82
2021/07/15 00:58:25;;;;;;;13.65;11.90;;;691.20;2278.40;;;;;;5021188;28;20027;-81
2021/07/15 01:00:51;;;;;;;15.70;11.85;;;691.30;2278.40;;;;;;5027338;28;20553;-81
2021/07/15 01:03:19;;;;;;;15.18;10.88;;;691.20;2304.00;;;;;;5027696;28;20056;-81
2021/07/15 01:05:51;;;;;;;15.50;11.48;;;666.50;2278.40;;;;;;5027825;28;20021;-82
2021/07/15 01:08:17;;;;;;;16.98;11.43;;;666.50;2278.40;;;;;;5026053;28;20026;-81
2021/07/15 01:10:53;;;;;;;15.07;10.43;;;691.20;2304.00;;;;;;5027822;28;20043;-82
2021/07/15 01:13:48;;;;;;;16.13;10.20;;;691.20;2278.40;;;;;;5025445;28;20519;-81
2021/07/15 01:16:28;;;;;;;13.27;10.88;;;666.50;2252.80;;;;;;5027776;28;20021;-82
2021/07/15 01:19:25;;;;;;;13.85;9.82;;;666.50;2278.40;;;;;;5027296;28;20025;-82
2021/07/15 01:22:00;;;;;;;15.00;9.95;;;666.40;2304.00;;;;;;5026522;28;20064;-81
2021/07/15 01:24:34;;;;;;;18.17;10.50;;;666.30;2278.40;;;;;;5027699;28;20026;-81
2021/07/15 01:27:35;;;;;;;15.02;9.95;;;666.30;2304.00;;;;;;5026999;28;20056;-81
2021/07/15 01:30:22;;;;;;;10.77;9.52;;;666.10;2304.00;;;;;;5026015;28;20064;-82
2021/07/15 01:33:16;;;;;;;16.60;9.90;;;666.20;2304.00;;;;;;5021837;28;20018;-83
2021/07/15 01:35:50;;;;;;;12.65;9.02;;;666.00;2304.00;;;;;;5019707;28;20028;-83
2021/07/15 01:38:20;;;;;;;13.55;10.30;;;666.00;2329.60;;;;;;5019734;28;20348;-82
2021/07/15 01:41:06;;;;;;;14.13;9.13;;;666.00;2329.60;;;;;;5019107;28;20021;-81
2021/07/15 01:43:53;;;;;;;16.27;10.60;;;665.60;2304.00;;;;;;5018406;28;20519;-83
2021/07/15 01:46:19;;;;;;;12.70;10.20;;;666.00;2329.60;;;;;;5018905;28;20128;-82
2021/07/15 01:48:47;;;;;;;16.55;9.55;;;665.60;2355.20;;;;;;5018754;28;20072;-83
2021/07/15 01:51:13;;;;;;;15.15;10.15;;;665.60;2355.20;;;;;;5018802;28;20037;-82
2021/07/15 01:53:40;;;;;;;15.40;10.10;;;;;;;;;;5018769;28;20025;-82
2021/07/15 01:56:08;;;;;;;13.55;9.68;;;640.70;2355.20;;;;;;5018737;28;20025;-83
2021/07/15 01:58:36;;;;;;;15.55;9.48;;;640.60;2380.80;;;;;;5018622;28;20045;-82
2021/07/15 02:01:04;;;;;;;12.73;9.45;;;640.60;2355.20;;;;;;5018647;28;20104;-83
2021/07/15 02:03:32;;;;;;;13.15;9.85;;;640.70;2355.20;;;;;;5018549;28;20017;-82
2021/07/15 02:05:59;;;;;;;12.40;9.40;;;640.60;2380.80;;;;;;5018311;28;20025;-84
2021/07/15 02:08:26;;;;;;;14.57;9.60;;;640.70;2406.40;;;;;;5018510;28;20052;-83
2021/07/15 02:10:53;;;;;;;11.00;9.68;;;640.60;2380.80;;;;;;5018286;28;20079;-82
2021/07/15 02:13:19;;;;;;;14.52;10.52;;;640.60;2380.80;;;;;;5018432;28;20022;-82
2021/07/15 02:15:46;;;;;;;15.10;9.60;;;640.60;2380.80;;;;;;5018394;28;20017;-83
2021/07/15 02:18:15;;;;;;;14.48;9.18;;;640.70;2406.40;;;;;;5018188;28;20044;-83
2021/07/15 02:20:42;;;;;;;13.95;10.52;;;640.70;2380.80;;;;;;5018337;28;20031;-85
2021/07/15 02:23:09;;;;;;;17.70;10.23;;;640.70;2406.40;;;;;;5018044;28;20026;-85
2021/07/15 02:25:37;;;;;;;15.60;10.32;;;640.50;2406.40;;;;;;5018295;28;20065;-84
2021/07/15 02:28:06;;;;;;;16.25;10.55;;;640.30;2432.00;;;;;;5017785;28;20044;-83
2021/07/15 02:30:32;;;;;;;16.02;9.68;;;640.40;2432.00;;;;;;5017785;28;20030;-83
2021/07/15 02:33:02;;;;;;;16.23;10.07;;;640.20;2432.00;;;;;;5017958;28;20022;-83
2021/07/15 02:35:49;;;;;;;17.10;10.75;;;640.40;2432.00;;;;;;5018170;28;20028;-82
2021/07/15 02:38:19;;;;;;;16.45;10.70;;;640.50;2432.00;;;;;;5017612;28;20021;-83
2021/07/15 02:40:45;;;;;;;15.18;10.18;;;640.40;2432.00;;;;;;5018042;28;20368;-83
2021/07/15 02:43:11;;;;;;;17.60;10.05;;;640.40;2432.00;;;;;;5017679;28;20108;-85
2021/07/15 02:45:37;;;;;;;15.57;11.82;;;640.30;2432.00;;;;;;5017596;28;20508;-83
2021/07/15 02:48:03;;;;;;;12.68;9.00;;;615.30;2432.00;;;;;;5035042;28;20105;-84
2021/07/15 02:50:29;;;;;;;15.10;9.45;;;615.30;2432.00;;;;;;5017596;28;20029;-84
2021/07/15 02:52:57;;;;;;;14.95;10.32;;;615.20;2432.00;;;;;;5017354;28;20025;-85
2021/07/15 02:55:25;;;;;;;16.25;10.13;;;615.10;2432.00;;;;;;5017424;28;20025;-83
2021/07/15 02:58:03;;;;;;;12.15;9.80;;;615.30;2432.00;;;;;;5017591;28;20056;-81
2021/07/15 03:00:40;;;;;;;13.07;10.30;;;615.20;2432.00;;;;;;5017620;28;20029;-84
2021/07/15 03:03:49;;;;;;;21.98;11.02;;;615.30;2432.00;;;;;;5017606;28;20112;-83
2021/07/15 03:06:41;;;;;;;12.57;10.50;;;615.30;2432.00;;;;;;5017683;28;20511;-84
2021/07/15 03:09:11;;;;;;;15.77;10.52;;;615.30;2432.00;;;;;;5016459;28;20037;-83
2021/07/15 03:11:59;;;;;;;18.60;10.73;;;615.20;2432.00;;;;;;5017253;28;20119;-84
2021/07/15 03:14:34;;;;;;;13.95;11.60;;;615.30;2432.00;;;;;;5017309;28;20022;-83
2021/07/15 03:17:02;;;;;;;15.50;11.40;;;615.30;2432.00;;;;;;5034199;28;20033;-82
2021/07/15 03:19:32;;;;;;;21.52;12.88;;;615.30;2432.00;;;;;;5017079;28;20404;-84
2021/07/15 03:22:04;;;;;;;21.45;12.88;;;615.30;2432.00;;;;;;5017143;28;20029;-83
2021/07/15 03:24:33;;;;;;;21.15;12.82;;;615.30;2432.00;;;;;;5017339;28;20025;-83
2021/07/15 03:27:03;;;;;;;18.67;13.00;;;615.20;2432.00;;;;;;5016840;28;20457;-82
2021/07/15 03:29:31;;;;;;;17.48;12.63;;;;;;;;;;5016915;28;20037;-83
2021/07/15 03:31:57;;;;;;;17.00;11.95;;;;;;;;;;5017096;28;20449;-82
2021/07/15 03:34:24;;;;;;;18.63;12.65;;;;;;;;;;5016791;28;20045;-84
2021/07/15 03:36:50;;;;;;;17.15;11.95;;;;;;;;;;5017044;28;20049;-83
2021/07/15 03:39:18;;;;;;;15.60;12.23;;;;;;;;;;5016952;28;20416;-83
2021/07/15 03:41:46;;;;;;;17.55;12.05;;;;;;;;;;5016572;28;20041;-82
2021/07/15 03:44:13;;;;;;;18.42;11.50;;;;;;;;;;5016757;28;20055;-83
2021/07/15 03:46:44;;;;;;;22.27;12.57;;;615.10;2432.00;;;;;;5016909;28;20021;-83
2021/07/15 03:49:10;;;;;;;18.27;12.70;;;614.90;2432.00;;;;;;5016651;28;20025;-84
2021/07/15 03:51:37;;;;;;;18.48;13.02;;;614.50;2432.00;;;;;;5017003;28;20052;-83
2021/07/15 03:54:03;;;;;;;19.42;12.50;;;615.00;2432.00;;;;;;5034117;28;20457;-83
2021/07/15 03:56:30;;;;;;;21.63;13.73;;;614.90;2432.00;;;;;;5016732;28;20025;-83
2021/07/15 03:59:01;;;;;;;20.20;12.73;;;614.60;2432.00;;;;;;5016791;28;20022;-84
2021/07/15 04:01:31;;;;;;;17.45;11.43;;;614.70;2432.00;;;;;;5016608;28;20052;-85
2021/07/15 04:04:00;;;;;;;21.20;13.02;;;614.60;2432.00;;;;;;5016662;28;20087;-83
2021/07/15 04:06:28;;;;;;;17.02;11.75;;;614.70;2432.00;;;;;;5016615;28;20036;-84
2021/07/15 04:08:55;;;;;;;16.63;11.05;;;614.70;2432.00;;;;;;5016175;28;20022;-83
2021/07/15 04:11:24;;;;;;;21.58;12.50;;;614.80;2432.00;;;;;;5016628;28;20025;-84
2021/07/15 04:13:51;;;;;;;18.70;11.18;;;614.70;2432.00;;;;;;5016958;28;20373;-84
2021/07/15 04:16:29;;;;;;;20.25;10.70;;;614.60;2432.00;;;;;;5033905;28;20025;-85
2021/07/15 04:18:57;;;;;;;16.70;11.20;;;614.60;2432.00;;;;;;5016410;28;20056;-83
2021/07/15 04:21:24;;;;;;;19.27;11.18;;;614.60;2432.00;;;;;;5016592;28;20025;-84
2021/07/15 04:23:55;;;;;;;18.58;10.90;;;614.60;2432.00;;;;;;5016374;28;20029;-83
2021/07/15 04:26:24;;;;;;;22.75;11.63;;;614.70;2432.00;;;;;;5016828;28;20529;-82
2021/07/15 04:28:50;;;;;;;23.15;11.57;;;614.70;2432.00;;;;;;5017259;28;20140;-81
2021/07/15 04:31:26;;;;;;;20.83;11.73;;;614.50;2432.00;;;;;;5020148;28;20044;-84
2021/07/15 04:33:55;;;;;;;15.27;10.85;;;614.60;2432.00;;;;;;5020387;28;20060;-84
2021/07/15 04:36:21;;;;;;;21.23;11.65;;;614.60;2432.00;;;;;;5020163;28;20026;-82
2021/07/15 04:38:48;;;;;;;19.67;10.90;;;589.70;2432.00;;;;;;5020063;28;20028;-83
2021/07/15 04:41:15;;;;;;;18.17;11.10;;;589.70;2432.00;;;;;;5020060;28;20369;-81
2021/07/15 04:43:41;;;;;;;16.75;9.93;;;589.70;2432.00;;;;;;5037448;28;20402;-82
2021/07/15 04:46:10;;;;;;;21.08;10.80;;;614.40;2432.00;;;;;;5020135;28;20021;-81
2021/07/15 04:48:36;;;;;;;21.23;10.25;;;589.70;2432.00;;;;;;5019771;28;20136;-83
2021/07/15 04:51:02;;;;;;;18.00;10.25;;;614.50;2432.00;;;;;;5019716;28;20108;-83
2021/07/15 04:53:32;;;;;;;21.13;9.88;;;614.50;2432.00;;;;;;5019844;28;20018;-82
2021/07/15 04:55:58;;;;;;;22.33;11.18;;;614.70;2432.00;;;;;;5019430;28;20025;-82
2021/07/15 04:58:24;;;;;;;20.92;10.85;;;614.70;2432.00;;;;;;5019973;28;20025;-84
2021/07/15 05:00:50;;;;;;;20.65;9.68;;;614.80;2432.00;;;;;;5019745;28;20378;-83
2021/07/15 05:03:30;;;;;;;20.95;10.90;;;615.30;2432.00;;;;;;5019795;28;20369;-82
2021/07/15 05:05:57;;;;;;;18.48;9.52;;;615.00;2432.00;;;;;;5019835;28;20535;-82
2021/07/15 05:08:23;;;;;;;18.77;9.75;;;615.10;2432.00;;;;;;5019656;28;20021;-83
2021/07/15 05:10:49;;;;;;;16.13;8.93;;;615.10;2432.00;;;;;;5019784;28;20068;-80
2021/07/15 05:13:14;;;;;;;22.30;9.02;;;615.20;2432.00;;;;;;5019474;28;20075;-82
2021/07/15 05:15:41;;;;;;;24.50;9.95;;;615.20;2432.00;;;;;;5019692;28;20029;-85
2021/07/15 05:18:07;;;;;;;17.85;9.77;;;615.20;2432.00;;;;;;5019396;28;20052;-81
2021/07/15 05:20:33;;;;;;;16.85;9.50;;;615.30;2432.00;;;;;;5036834;28;20025;-83
2021/07/15 05:22:59;;;;;;;14.90;9.45;;;640.00;2432.00;;;;;;5019525;28;20025;-84
2021/07/15 05:25:25;;;;;;;15.10;9.55;;;640.10;2432.00;;;;;;5019269;28;20524;-86
2021/07/15 05:27:50;;;;;;;13.88;9.45;;;640.10;2432.00;;;;;;5018781;28;20045;-81
2021/07/15 05:30:17;;;;;;;16.75;8.80;;;640.10;2432.00;;;;;;5019249;28;20434;-84
2021/07/15 05:32:43;;;;;;;17.30;9.80;;;640.30;2432.00;;;;;;5019104;28;20079;-83
2021/07/15 05:35:09;;;;;;;16.73;9.70;;;640.30;2432.00;;;;;;5019509;28;20108;-85
2021/07/15 05:37:35;;;;;;;17.77;9.90;;;640.30;2432.00;;;;;;5019163;28;20052;-81
2021/07/15 05:40:02;;;;;;;15.32;9.40;;;640.40;2432.00;;;;;;5018379;28;20029;-81
2021/07/15 05:42:28;;;;;;;14.05;8.80;;;640.40;2432.00;;;;;;5019531;28;20024;-83
2021/07/15 05:44:55;;;;;;;19.50;9.68;;;640.50;2432.00;;;;;;5019013;28;20026;-82
2021/07/15 05:47:21;;;;;;;17.23;10.23;;;640.50;2432.00;;;;;;5019012;28;20044;-83
2021/07/15 05:49:47;;;;;;;13.80;9.88;;;640.70;2432.00;;;;;;5019003;28;20033;-83
2021/07/15 05:52:13;;;;;;;17.45;9.98;;;640.90;2432.00;;;;;;5020038;28;20022;-81
2021/07/15 05:54:39;;;;;;;21.20;9.40;;;640.90;2432.00;;;;;;5020420;28;20033;-81
2021/07/15 05:57:06;;;;;;;15.95;10.05;;;640.50;2432.00;;;;;;5018890;28;20033;-81
2021/07/15 05:59:35;;;;;;;16.02;9.82;;;665.60;2432.00;;;;;;5018688;28;20132;-84
2021/07/15 06:02:01;;;;;;;17.20;9.65;;;665.90;2432.00;;;;;;5018414;28;20071;-83
2021/07/15 06:04:27;;;;;;;19.05;10.13;;;666.50;2432.00;;;;;;5018705;28;20518;-81
2021/07/15 06:06:53;;;;;;;19.00;11.25;;;666.10;2432.00;;;;;;5018537;28;20028;-82
2021/07/15 06:09:19;;;;;;;16.25;9.90;;;666.20;2432.00;;;;;;5018385;28;20033;-82
2021/07/15 06:11:45;;;;;;;14.57;9.25;;;666.30;2406.40;;;;;;5018435;28;20021;-83
2021/07/15 06:14:11;;;;;;;15.10;8.93;;;666.50;2406.40;;;;;;5018467;28;20444;-81
2021/07/15 06:16:37;;;;;;;13.75;8.48;;;691.20;2380.80;;;;;;5018257;28;20573;-82
2021/07/15 06:19:03;;;;;;;15.88;8.55;;;691.30;2355.20;;;;;;5018271;28;20017;-83
2021/07/15 06:21:29;;;;;;;16.25;9.05;;;691.40;2329.60;;;;;;5018008;28;20053;-83
2021/07/15 06:23:55;;;;;;;15.38;10.07;;;691.60;2329.60;;;;;;5018285;28;20112;-83
2021/07/15 06:26:21;;;;;;;17.30;9.45;;;691.60;2329.60;;;;;;5018216;28;20025;-82
2021/07/15 06:28:47;;;;;;;15.52;9.45;;;691.70;2329.60;;;;;;5017361;28;20366;-83
2021/07/15 06:31:13;;;;;;;14.07;9.32;;;691.80;2329.60;;;;;;5017994;28;20373;-82
2021/07/15 06:33:39;;;;;;;15.88;9.48;;;692.10;2278.40;;;;;;5018060;28;20383;-83
2021/07/15 06:36:07;;;;;;;14.75;9.07;;;691.90;2278.40;;;;;;5035163;28;20026;-83
2021/07/15 06:38:38;;;;;;;16.98;8.60;;;692.10;2278.40;;;;;;5017834;28;20048;-82
2021/07/15 06:41:07;;;;;;;13.90;9.95;;;692.10;2252.80;;;;;;5018050;28;20453;-84
2021/07/15 06:43:34;;;;;;;17.85;9.85;;;716.80;2278.40;;;;;;5017694;28;20029;-82
2021/07/15 06:46:00;;;;;;;12.55;9.20;;;716.80;2252.80;;;;;;5017712;28;20029;-82
2021/07/15 06:48:26;;;;;;;15.57;8.77;;;716.90;2252.80;;;;;;5017667;28;20025;-83
2021/07/15 06:50:52;;;;;;;13.55;9.10;;;717.10;2252.80;;;;;;5017444;28;20082;-81
2021/07/15 06:53:18;;;;;;;16.58;8.60;;;717.10;2227.20;;;;;;5016520;28;20067;-84
2021/07/15 06:55:44;;;;;;;15.75;9.05;;;717.30;2227.20;;;;;;5017461;28;20026;-84
2021/07/15 06:58:11;;;;;;;17.15;10.25;;;717.10;2201.60;;;;;;5017403;28;20025;-83
2021/07/15 07:00:37;;;;;;;15.73;10.02;;;717.60;2201.60;;;;;;5035156;28;20025;-85
2021/07/15 07:03:03;;;;;;;15.90;9.10;;;717.70;2201.60;;;;;;5017406;28;20022;-83
2021/07/15 07:05:29;;;;;;;16.77;9.23;;;717.70;2176.00;;;;;;5017425;28;20023;-84
2021/07/15 07:07:55;;;;;;;13.73;9.18;;;742.40;2201.60;;;;;;5017267;28;20108;-82
2021/07/15 07:10:21;;;;;;;18.33;11.38;;;742.40;2201.60;;;;;;5020216;28;20123;-82
2021/07/15 07:12:48;;;;;;;20.05;9.35;;;742.60;2176.00;;;;;;5036939;28;20021;-84
2021/07/15 07:15:18;;;;;;;12.88;9.40;;;742.50;2201.60;;;;;;5037044;28;20017;-82
2021/07/15 07:17:44;;;;;;;15.00;9.45;;;742.60;2201.60;;;;;;5036752;28;20017;-83
2021/07/15 07:20:12;;;;;;;16.05;9.93;;;742.60;2201.60;;;;;;5036811;28;20048;-82
2021/07/15 07:22:38;;;;;;;15.18;10.13;;;742.80;2176.00;;;;;;5036705;28;20025;-81
2021/07/15 07:25:06;;;;;;;24.10;11.07;;;742.90;2176.00;;;;;;5036722;28;20029;-82
2021/07/15 07:27:32;;;;;;;19.98;10.48;;;743.10;2124.80;;;;;;5036317;28;20465;-83
2021/07/15 07:29:59;;;;;;;21.02;10.85;;;743.30;2124.80;;;;;;5037088;28;20029;-82
2021/07/15 07:32:25;;;;;;;21.30;10.40;;;743.20;2124.80;;;;;;5036799;28;20018;-84
2021/07/15 07:34:51;;;;;;;45.92;13.77;;;768.00;2099.20;;;;;;5036853;28;20028;-82
2021/07/15 07:37:16;;;;;;;33.72;12.98;;;768.10;2073.60;;;;;;5036603;28;20033;-82
2021/07/15 07:39:43;;;;;;;15.80;10.57;;;768.40;2073.60;;;;;;5036449;28;20365;-82
2021/07/15 07:42:09;;;;;;;21.25;12.20;;;768.50;2048.00;;;;;;5036512;28;20028;-82
2021/07/15 07:44:35;;;;;;;18.70;11.30;;;768.60;2048.00;;;;;;5036444;28;20021;-84
2021/07/15 07:47:01;;;;;;;15.82;11.02;;;768.80;2048.00;;;;;;5036293;28;20017;-81
2021/07/15 07:49:26;;;;;;;18.17;10.73;;;793.60;2048.00;;;;;;5036265;28;20028;-81
2021/07/15 07:51:52;;;;;;;14.48;10.93;;;768.90;2022.40;;;;;;5035962;28;20043;-82
2021/07/15 07:54:18;;;;;;;15.70;11.45;;;768.90;1996.80;;;;;;5036385;28;20071;-80
2021/07/15 07:56:44;;;;;;;20.60;10.82;;;793.60;2022.40;;;;;;5036292;28;20013;-81
2021/07/15 07:59:10;;;;;;;17.92;11.30;;;793.70;2022.40;;;;;;5036164;28;20116;-81
2021/07/15 08:01:36;;;;;;;15.95;11.02;;;793.80;1996.80;;;;;;5036410;28;20500;-82
2021/07/15 08:04:03;;;;;;;20.83;11.55;;;793.80;1996.80;;;;;;5018643;28;20030;-83
2021/07/15 08:06:34;;;;;;;13.38;10.85;;;794.20;1996.80;;;;;;5016358;28;20057;-82
2021/07/15 08:09:04;;;;;;;15.77;11.32;;;794.40;1996.80;;;;;;5016500;28;20516;-82
2021/07/15 08:11:31;;;;;;;14.48;10.82;;;819.20;1971.20;;;;;;5016140;28;20128;-84
2021/07/15 08:13:57;;;;;;;23.48;12.25;;;819.60;1920.00;;;;;;5016342;28;20117;-81
2021/07/15 08:16:23;;;;;;;14.57;10.95;;;819.40;1894.40;;;;;;5016422;28;20103;-84
2021/07/15 08:18:49;;;;;;;13.88;10.23;;;819.80;1894.40;;;;;;5016136;28;20504;-84
2021/07/15 08:21:21;;;;;;;14.73;11.43;;;819.80;1894.40;;;;;;5015805;28;20365;-84
2021/07/15 08:23:48;;;;;;;13.40;10.90;;;819.70;1894.40;;;;;;5033594;28;20025;-84
2021/07/15 08:26:15;;;;;;;16.27;11.07;;;819.80;1868.80;;;;;;5016748;28;20056;-85
2021/07/15 08:28:41;;;;;;;13.55;10.45;;;819.60;1894.40;;;;;;4997196;28;20065;-84
2021/07/15 08:31:07;;;;;;;14.45;10.52;;;819.30;1894.40;;;;;;4988059;28;20026;-84
2021/07/15 08:33:33;;;;;;;16.38;11.30;;;819.60;1894.40;;;;;;4982647;28;20029;-82
2021/07/15 08:35:59;;;;;;;17.70;11.13;;;819.50;1920.00;;;;;;4976680;28;20026;-79
2021/07/15 08:38:25;;;;;;;12.05;10.30;;;819.70;1894.40;;;;;;4977065;28;20034;-79
2021/07/15 08:40:51;;;;;;;13.85;10.77;;;819.80;1868.80;;;;;;4976599;28;20058;-82
2021/07/15 08:43:18;;;;;;;14.70;11.45;;;819.80;1868.80;;;;;;4976715;28;20077;-82
2021/07/15 08:45:45;;;;;;;12.85;11.38;;;819.90;1868.80;;;;;;4976934;28;20030;-81
2021/07/15 08:48:12;;;;;;;14.75;12.18;;;845.20;1894.40;;;;;;4976596;28;20026;-82
2021/07/15 08:50:39;;;;;;;15.82;13.43;;;870.40;1868.80;;;;;;4976696;28;20452;-82
2021/07/15 08:53:05;;;;;;;20.40;15.18;;;845.60;1868.80;;;;;;4984420;28;20080;-82
2021/07/15 08:58:18;;;;;;;23.55;15.07;;;870.50;1843.20;;;;;;5002053;28;20018;-80
2021/07/15 09:00:46;;;;;;;17.40;12.30;;;870.80;1817.60;;;;;;4989734;28;20431;-77
2021/07/15 09:03:13;;;;;;;18.88;12.27;;;870.90;1792.00;;;;;;5010166;28;20058;-83
2021/07/15 09:05:40;;;;;;;36.58;14.07;;;871.00;1792.00;;;;;;4986567;28;20022;-79
2021/07/15 09:08:06;;;;;;;15.35;10.57;;;871.10;1740.80;;;;;;4985374;28;20018;-80
2021/07/15 09:10:32;;;;;;;12.38;10.35;;;871.10;1766.40;;;;;;4979969;28;20038;-81
2021/07/15 09:13:00;;;;;;;17.17;13.68;;;871.10;1740.80;;;;;;4976581;28;20022;-80
2021/07/15 09:15:26;;;;;;;13.85;11.82;;;871.30;1740.80;;;;;;4977265;28;20033;-82
2021/07/15 09:17:51;;;;;;;13.30;10.40;;;871.30;1740.80;;;;;;4979921;28;20026;-80
2021/07/15 09:20:20;;;;;;;18.40;11.00;;;896.00;1740.80;;;;;;4997379;28;20034;-80
2021/07/15 09:23:05;;;;;;;13.82;10.45;;;896.20;1689.60;;;;;;4979980;28;20406;-80
2021/07/15 09:25:37;;;;;;;15.20;10.05;;;871.10;1715.20;;;;;;4990334;28;20018;-81
2021/07/15 09:28:08;;;;;;;14.48;11.00;;;870.90;1715.20;;;;;;4999079;28;20096;-79
2021/07/15 09:30:34;;;;;;;15.70;10.20;;;870.90;1715.20;;;;;;4999288;28;20029;-80
2021/07/15 09:33:02;;;;;;;11.77;10.45;;;870.80;1766.40;;;;;;4999290;28;20026;-80
2021/07/15 09:35:32;;;;;;;14.40;10.88;;;871.10;1715.20;;;;;;4999047;28;20030;-84
2021/07/15 09:38:18;;;;;;;16.67;11.20;;;871.30;1715.20;;;;;;4999303;28;20022;-84
2021/07/15 09:40:45;;;;;;;13.32;10.35;;;896.20;1689.60;;;;;;4999151;28;20100;-81
2021/07/15 09:43:11;;;;;;;13.35;11.02;;;896.60;1689.60;;;;;;5016735;28;20029;-81
2021/07/15 09:45:37;;;;;;;17.23;11.65;;;896.90;1664.00;;;;;;4999028;28;20508;-84
2021/07/15 09:48:22;;;;;;;13.88;11.48;;;921.70;1664.00;;;;;;4998790;28;20018;-80
2021/07/15 09:50:49;;;;;;;13.65;10.23;;;922.00;1664.00;;;;;;4998868;28;20057;-82
2021/07/15 09:53:27;;;;;;;15.63;10.32;;;896.40;1638.40;;;;;;4998832;28;20045;-84
2021/07/15 09:56:02;;;;;;;15.20;10.25;;;896.20;1638.40;;;;;;4998717;28;20025;-82
2021/07/15 09:58:34;;;;;;;18.15;12.52;;;896.30;1638.40;;;;;;4999086;28;20063;-81
2021/07/15 10:01:08;;;;;;;15.55;11.40;;;896.70;1638.40;;;;;;4998794;28;20030;-84
2021/07/15 10:03:40;;;;;;;19.00;11.23;;;921.80;1638.40;;;;;;4999026;28;20026;-83
2021/07/15 10:06:06;;;;;;;18.02;11.35;;;922.10;1612.80;;;;;;5017151;28;20363;-81
2021/07/15 10:08:34;;;;;;;18.42;10.63;;;922.50;1587.20;;;;;;5016854;28;20098;-83
2021/07/15 10:11:19;;;;;;;13.20;9.82;;;922.50;1561.60;;;;;;4998585;28;20112;-80
2021/07/15 10:13:58;;;;;;;16.80;12.55;;;922.50;1561.60;;;;;;4998821;28;20072;-86
2021/07/15 10:16:29;;;;;;;13.63;10.32;;;947.40;1561.60;;;;;;4998309;28;20021;-82
2021/07/15 10:18:54;;;;;;;10.90;9.57;;;947.40;1510.40;;;;;;4998500;28;20021;-80
2021/07/15 10:21:26;;;;;;;29.77;13.45;;;947.30;1510.40;;;;;;4998437;28;20028;-84
2021/07/15 10:23:52;;;;;;;14.93;10.27;;;947.70;1536.00;;;;;;5015815;28;20108;-81
2021/07/15 10:26:18;;;;;;;14.05;10.63;;;947.80;1510.40;;;;;;4995713;28;20489;-83
2021/07/15 10:28:49;;;;;;;20.88;10.57;;;948.10;1484.80;;;;;;5013014;28;20061;-85
2021/07/15 10:31:17;;;;;;;14.93;9.43;;;948.10;1510.40;;;;;;5017791;28;20079;-83
2021/07/15 10:33:45;;;;;;;16.27;10.32;;;972.80;1510.40;;;;;;5017969;28;20123;-85
2021/07/15 10:36:11;;;;;;;14.68;11.50;;;947.90;1484.80;;;;;;5018135;28;20445;-85
2021/07/15 10:38:44;;;;;;;19.48;12.30;;;972.80;1536.00;;;;;;5017524;28;20017;-85
2021/07/15 10:41:12;;;;;;;14.38;10.13;;;973.20;1510.40;;;;;;5018512;28;20025;-84
2021/07/15 10:43:39;;;;;;;15.73;9.70;;;948.10;1433.60;;;;;;5017295;28;20079;-84
2021/07/15 10:46:06;;;;;;;12.20;8.50;;;948.10;1433.60;;;;;;5017339;28;20028;-84
2021/07/15 10:48:34;;;;;;;14.75;8.70;;;948.10;1408.00;;;;;;5017480;28;20033;-84
2021/07/15 10:51:01;;;;;;;16.77;9.50;;;948.10;1408.00;;;;;;5017171;28;20060;-82
2021/07/15 10:53:29;;;;;;;11.02;8.88;;;973.10;1433.60;;;;;;5017556;28;20036;-84
2021/07/15 10:55:55;;;;;;;13.90;10.18;;;973.00;1433.60;;;;;;5017516;28;20049;-84
2021/07/15 10:58:44;;;;;;;13.52;9.15;;;973.40;1433.60;;;;;;5017135;28;20021;-83
2021/07/15 11:01:29;;;;;;;17.52;9.95;;;973.30;1408.00;;;;;;5017214;28;20021;-79
2021/07/15 11:04:15;;;;;;;17.33;9.40;;;973.10;1408.00;;;;;;5017046;28;20033;-78
2021/07/15 11:06:50;;;;;;;12.73;9.75;;;973.50;1408.00;;;;;;5034558;28;20434;-82
2021/07/15 11:09:33;;;;;;;31.67;11.30;;;972.90;1433.60;;;;;;5016936;28;20053;-82
2021/07/15 11:12:03;;;;;;;12.05;9.52;;;973.40;1459.20;;;;;;5017083;28;20071;-82
2021/07/15 11:14:40;;;;;;;87.03;18.90;;;973.30;1408.00;;;;;;5016915;28;20454;-78
2021/07/15 11:17:21;;;;;;;16.88;10.23;;;973.60;1433.60;;;;;;5034792;28;20096;-80
2021/07/15 11:20:28;;;;;;;18.63;11.27;;;998.40;1433.60;;;;;;5016525;28;20037;-79
2021/07/15 11:22:56;;;;;;;12.25;10.43;;;998.80;1408.00;;;;;;4935255;29;20491;-84
2021/07/15 11:25:28;;;;;;;13.13;9.35;;;999.10;1408.00;;;;;;5002886;28;20494;-78
2021/07/15 11:28:19;;;;;;;32.90;12.38;;;999.30;1408.00;;;;;;5016260;28;20374;-81
2021/07/15 11:30:44;;;;;;;16.57;10.57;;;999.30;1356.80;;;;;;5004581;28;20045;-82
2021/07/15 11:33:20;;;;;;;13.10;10.18;;;1024.10;1356.80;;;;;;5016189;28;20576;-79
2021/07/15 11:36:05;;;;;;;100.75;20.00;;;1024.30;1331.20;;;;;;5016890;28;20021;-84
2021/07/15 11:38:53;;;;;;;20.33;10.23;;;1024.30;1331.20;;;;;;5016091;28;20021;-82
2021/07/15 11:41:20;;;;;;;16.00;12.77;;;1024.40;1305.60;;;;;;5034217;28;20026;-81
2021/07/15 11:43:50;;;;;;;17.02;10.40;;;1024.70;1331.20;;;;;;5034239;28;20087;-81
2021/07/15 11:46:48;;;;;;;13.80;9.70;;;1024.10;1305.60;;;;;;5016485;28;20024;-82
2021/07/15 11:49:19;;;;;;;13.30;10.75;;;1024.20;1331.20;;;;;;4963154;28;20033;-80
2021/07/15 11:52:01;;;;;;;13.90;10.05;;;1024.50;1331.20;;;;;;5016383;28;20018;-81
2021/07/15 11:54:48;;;;;;;27.50;12.23;;;1024.50;1331.20;;;;;;5016144;28;20030;-81
2021/07/15 11:57:14;;;;;;;15.70;9.93;;;1024.70;1331.20;;;;;;5016379;28;20028;-82
2021/07/15 11:59:48;;;;;;;14.82;10.60;;;1024.70;1305.60;;;;;;5016173;28;20029;-82
2021/07/15 12:02:37;;;;;;;11.75;10.20;;;1024.90;1305.60;;;;;;5016105;28;20029;-83
2021/07/15 12:05:20;;;;;;;17.30;10.10;;;1049.60;1331.20;;;;;;5033957;28;20044;-80
2021/07/15 12:08:07;;;;;;;12.20;10.27;;;1049.60;1305.60;;;;;;5016053;28;20018;-86
2021/07/15 12:10:47;;;;;;;20.67;10.98;;;1049.60;1331.20;;;;;;5016244;28;20034;-82
2021/07/15 12:13:18;;;;;;;17.10;11.55;;;1049.60;1305.60;;;;;;5016362;28;20033;-82
2021/07/15 12:15:46;;;;;;;16.33;11.18;;;1049.80;1305.60;;;;;;5007500;28;20085;-81
2021/07/15 12:18:13;;;;;;;12.65;10.57;;;1050.00;1280.00;;;;;;5011303;28;20025;-80
2021/07/15 12:20:45;;;;;;;14.18;10.43;;;1050.20;1280.00;;;;;;5016051;28;20335;-83